Currently 38°F in Murrieta, California, USA
38°F
45°F / 38°F
calm
0.00"
Thursday, January 27, 2022 3:30 AM PST

Murrieta, California Weather Summary
Last 36 Hours

Temperature Winds Hourly Humidity Dewpoint
Time Report Norm Report Norm Max Gusts Precip. Rpt. Norm Rpt. Norm Pressure
1,3Thu 03:30 AM  38.4°F  46°F  calm  1 mph  none  0.00"  69%  81%  29°F  40°F  N/A
Thu 03:00 AM  38.9°F  46°F  calm  1 mph  none  0.00"  69%  80%  29°F  40°F  N/A
Thu 02:00 AM  41.4°F  47°F  calm  1 mph  none  0.00"  63%  79%  29°F  40°F  N/A
Thu 01:00 AM  41.5°F  47°F  calm  1 mph  none  0.00"  60%  78%  28°F  41°F  N/A
2Thu 12:01 AM  44.9°F  48°F  calm  1 mph  none  ----  53%  76%  28°F  41°F  N/A
Thu 12:00 AM  44.9°F  48°F  calm  1 mph  none  0.00"  53%  76%  28°F  41°F  N/A
Wed 11:00 PM  45.6°F  49°F  calm  1 mph  none  0.00"  52%  75%  28°F  42°F  N/A
Wed 10:00 PM  46.5°F  51°F  calm  1 mph  none  0.00"  51%  73%  28°F  42°F  N/A
Wed 09:00 PM  50.8°F  52°F  calm  2 mph  none  0.00"  43%  71%  28°F  42°F  N/A
Wed 08:00 PM  52.4°F  53°F  calm  2 mph  none  0.00"  39%  69%  27°F  43°F  N/A
Wed 07:00 PM  56.7°F  55°F  calm  2 mph  none  0.00"  30%  66%  24°F  43°F  N/A
Wed 06:00 PM  58.5°F  57°F  calm  3 mph  none  0.00"  29%  62%  25°F  44°F  N/A
Wed 05:00 PM  61.6°F  60°F  calm  4 mph  none  0.00"  25%  57%  24°F  44°F  N/A
Wed 04:00 PM  67.3°F  63°F  calm  4 mph  none  0.00"  19%  51%  22°F  44°F  N/A
Wed 03:00 PM  69.9°F  66°F  calm  4 mph  none  0.00"  17%  46%  22°F  44°F  N/A
Wed 02:00 PM  68.3°F  66°F  calm  4 mph  none  0.00"  21%  45%  25°F  44°F  N/A
Wed 01:00 PM  69.1°F  66°F  calm  4 mph  none  0.00"  20%  45%  25°F  44°F  N/A
Wed 12:00 PM  67.0°F  65°F  calm  4 mph  none  0.00"  22%  48%  25°F  44°F  N/A
Wed 11:00 AM  63.8°F  62°F  calm  3 mph  none  0.00"  27%  55%  27°F  45°F  N/A
Wed 10:00 AM  60.4°F  57°F  calm  2 mph  none  0.00"  29%  65%  26°F  45°F  N/A
Wed 09:00 AM  53.4°F  52°F  calm  1 mph  none  0.00"  40%  76%  29°F  44°F  N/A
Wed 08:00 AM  50.2°F  46°F  calm  1 mph  none  0.00"  45%  83%  29°F  41°F  N/A
Wed 07:00 AM  47.6°F  44°F  calm  1 mph  none  0.00"  43%  84%  25°F  39°F  N/A
Wed 06:00 AM  49.0°F  44°F  calm  1 mph  none  0.00"  41%  84%  25°F  39°F  N/A
Wed 05:00 AM  42.2°F  45°F  calm  1 mph  none  0.00"  58%  83%  28°F  40°F  N/A
Wed 04:00 AM  42.9°F  46°F  calm  1 mph  none  0.00"  62%  81%  30°F  40°F  N/A
Wed 03:00 AM  48.8°F  46°F  calm  1 mph  none  0.00"  44%  80%  27°F  40°F  N/A
Wed 02:00 AM  47.3°F  47°F  calm  1 mph  none  0.00"  50%  79%  29°F  41°F  N/A
Wed 01:00 AM  43.8°F  48°F  calm  1 mph  none  0.00"  73%  78%  35°F  41°F  N/A
Wed 12:00 AM  44.0°F  49°F  calm  1 mph  none  0.00"  78%  76%  37°F  41°F  N/A
Tue 11:00 PM  45.1°F  50°F  calm  1 mph  none  0.00"  84%  75%  40°F  42°F  N/A
Tue 10:00 PM  46.6°F  51°F  calm  1 mph  none  0.00"  89%  73%  43°F  42°F  N/A
Tue 09:00 PM  48.4°F  52°F  calm  2 mph  none  0.00"  89%  71%  45°F  42°F  N/A
Tue 08:00 PM  51.0°F  53°F  calm  2 mph  none  0.00"  86%  69%  47°F  43°F  N/A
Tue 07:00 PM  53.5°F  55°F  calm  2 mph  none  0.00"  86%  65%  49°F  43°F  N/A
Tue 06:00 PM  55.4°F  57°F  calm  3 mph  none  0.00"  83%  62%  50°F  44°F  N/A
Tue 05:00 PM  60.1°F  60°F  calm  3 mph  none  0.00"  71%  57%  50°F  44°F  N/A
Tue 04:00 PM  64.8°F  63°F  calm  4 mph  none  0.00"  54%  50%  47°F  44°F  N/A

  1. Current weather data. No green row appears if the current weather data is also the high or low for the current day.
  2. High temperature for the current day.
  3. Low temperature for the current day.

The Murrieta weather pages are a service of WeatherCurrents. Murrieta, California is located in the Temecula Valley, in southwestern Riverside County, at the junctions of the Interstate 15 and 215 highways.
Copyright ©2022  WeatherCurrents. All rights reserved. - Submit questions and comments - Privacy Policy

This page automatically refreshes every 10 minutes.